createdAt,value
2023-02-08T00:01:30.593Z,0.63
2023-02-08T00:04:36.149Z,1.24
2023-02-08T00:07:41.570Z,2.78
2023-02-08T00:10:46.910Z,3.82
2023-02-08T00:13:52.193Z,4.49
2023-02-08T00:16:57.535Z,5.05
2023-02-08T00:20:02.923Z,4.75
2023-02-08T00:23:08.274Z,3.33
2023-02-08T00:26:14.820Z,2.27
2023-02-08T00:29:20.961Z,1.50
2023-02-08T00:32:26.939Z,0.96
2023-02-08T00:35:32.223Z,0.57
2023-02-08T00:38:37.526Z,0.50
2023-02-08T00:41:42.994Z,2.13
2023-02-08T00:44:48.536Z,3.67
2023-02-08T00:47:53.758Z,4.36
2023-02-08T00:51:00.676Z,4.29
2023-02-08T00:54:06.033Z,3.06
2023-02-08T00:57:11.795Z,1.96
2023-02-08T01:00:17.703Z,1.20
2023-02-08T01:03:23.723Z,0.72
2023-02-08T01:06:29.971Z,1.54
2023-02-08T01:09:35.726Z,3.19
2023-02-08T01:12:42.210Z,4.43
2023-02-08T01:15:47.565Z,5.30
2023-02-08T01:18:53.764Z,5.87
2023-02-08T01:21:59.021Z,5.11
2023-02-08T01:25:04.523Z,3.59
2023-02-08T01:28:09.883Z,2.42
2023-02-08T01:31:17.392Z,1.53
2023-02-08T01:34:22.923Z,1.43
2023-02-08T01:37:28.082Z,2.65
2023-02-08T01:40:33.438Z,3.88
2023-02-08T01:43:52.097Z,4.62
2023-02-08T01:46:57.362Z,3.49
2023-02-08T01:50:02.596Z,2.27
2023-02-08T01:53:07.971Z,1.47
2023-02-08T01:56:15.411Z,0.90
2023-02-08T01:59:22.436Z,0.46
2023-02-08T02:02:27.760Z,0.39
2023-02-08T02:05:35.167Z,1.62
2023-02-08T02:08:43.754Z,2.94
2023-02-08T02:11:50.728Z,3.82
2023-02-08T02:14:57.439Z,4.29
2023-02-08T02:18:03.092Z,3.38
2023-02-08T02:21:22.614Z,2.24
2023-02-08T02:25:00.259Z,1.35
2023-02-08T02:28:18.815Z,1.28
2023-02-08T02:31:48.673Z,2.77
2023-02-08T02:34:57.812Z,3.97
2023-02-08T02:38:09.689Z,4.52
2023-02-08T02:41:41.037Z,3.51
2023-02-08T02:44:52.598Z,2.07
2023-02-08T02:48:03.485Z,1.18
2023-02-08T02:51:11.185Z,1.60
2023-02-08T02:54:18.214Z,2.76
2023-02-08T02:57:27.064Z,3.56
2023-02-08T03:00:33.686Z,3.85
2023-02-08T03:03:40.253Z,2.83
2023-02-08T03:06:54.234Z,1.70
2023-02-08T03:10:04.173Z,0.90
2023-02-08T03:13:18.354Z,0.36
2023-02-08T03:16:28.378Z,0.00
2023-02-08T03:19:37.562Z,0.97
2023-02-08T03:22:46.839Z,2.28
2023-02-08T03:25:57.071Z,3.19
2023-02-08T03:29:05.433Z,3.91
2023-02-08T03:32:12.623Z,3.92
2023-02-08T03:35:20.538Z,2.74
2023-02-08T03:38:28.750Z,1.69
2023-02-08T03:41:36.126Z,0.97
2023-02-08T03:44:43.389Z,0.45
2023-02-08T03:47:50.131Z,0.13
2023-02-08T03:50:57.592Z,1.12
2023-02-08T03:54:05.581Z,2.68
2023-02-08T03:57:14.097Z,3.71
2023-02-08T04:00:21.680Z,4.18
2023-02-08T04:03:28.465Z,4.27
2023-02-08T04:06:33.813Z,3.18
2023-02-08T04:09:39.176Z,2.08
2023-02-08T04:12:44.557Z,1.29
2023-02-08T04:15:50.062Z,0.69
2023-02-08T04:18:55.533Z,0.20
2023-02-08T04:22:00.862Z,0.04
2023-02-08T04:25:06.699Z,1.22
2023-02-08T04:28:12.153Z,2.66
2023-02-08T04:31:17.583Z,3.58
2023-02-08T04:34:23.180Z,4.21
2023-02-08T04:37:31.349Z,3.54
2023-02-08T04:40:36.722Z,2.24
2023-02-08T04:43:42.075Z,1.28
2023-02-08T04:46:47.517Z,0.58
2023-02-08T04:49:52.818Z,0.08
2023-02-08T04:52:58.248Z,0.26
2023-02-08T04:56:03.705Z,1.55
2023-02-08T04:59:09.175Z,2.53
2023-02-08T05:02:14.442Z,3.21
2023-02-08T05:05:20.128Z,3.27
2023-02-08T05:08:25.643Z,2.13
2023-02-08T05:11:30.897Z,1.16
2023-02-08T05:14:36.133Z,0.66
2023-02-08T05:17:41.562Z,1.69
2023-02-08T05:20:47.071Z,2.81
2023-02-08T05:23:52.705Z,3.14
2023-02-08T05:26:58.127Z,2.28
2023-02-08T05:30:03.838Z,1.26
2023-02-08T05:33:09.145Z,0.56
2023-02-08T05:36:14.443Z,1.27
2023-02-08T05:39:19.727Z,2.57
2023-02-08T05:42:25.255Z,3.46
2023-02-08T05:45:30.580Z,4.02
2023-02-08T05:48:36.189Z,3.75
2023-02-08T05:51:41.546Z,2.38
2023-02-08T05:54:46.918Z,1.21
2023-02-08T05:57:52.054Z,0.81
2023-02-08T06:00:57.544Z,1.97
2023-02-08T06:04:02.876Z,2.92
2023-02-08T06:07:08.270Z,2.54
2023-02-08T06:10:13.610Z,1.39
2023-02-08T06:13:19.123Z,0.66
2023-02-08T06:16:24.389Z,0.18
2023-02-08T06:19:29.754Z,0.83
2023-02-08T06:22:36.441Z,2.22
2023-02-08T06:25:42.065Z,3.39
2023-02-08T06:28:47.537Z,3.88
2023-02-08T06:31:53.452Z,2.94
2023-02-08T06:34:59.470Z,1.72
2023-02-08T06:38:04.927Z,0.89
2023-02-08T06:41:10.293Z,0.31
2023-02-08T06:44:15.698Z,0.05
2023-02-08T06:47:21.038Z,1.18
2023-02-08T06:50:26.581Z,2.54
2023-02-08T06:53:32.432Z,3.50
2023-02-08T06:56:37.903Z,4.10
2023-02-08T06:59:43.595Z,3.62
2023-02-08T07:02:48.878Z,2.48
2023-02-08T07:06:04.407Z,1.66
2023-02-08T07:09:10.902Z,1.04
2023-02-08T07:12:16.261Z,0.60
2023-02-08T07:15:21.498Z,0.29
2023-02-08T07:18:26.806Z,0.90
2023-02-08T07:21:32.003Z,2.23
2023-02-08T07:24:38.669Z,3.20
2023-02-08T07:27:44.002Z,3.17
2023-02-08T07:30:49.386Z,2.10
2023-02-08T07:33:54.758Z,1.29
2023-02-08T07:37:00.210Z,1.16
2023-02-08T07:40:05.733Z,2.21
2023-02-08T07:43:11.125Z,2.75
2023-02-08T07:46:22.947Z,1.99
2023-02-08T07:49:28.311Z,1.23
2023-02-08T07:52:34.079Z,1.37
2023-02-08T07:55:39.464Z,2.56
2023-02-08T07:58:44.852Z,2.62
2023-02-08T08:01:50.266Z,1.69
2023-02-08T08:04:55.592Z,1.02
2023-02-08T08:08:00.937Z,1.32
2023-02-08T08:11:06.486Z,2.81
2023-02-08T08:14:11.918Z,3.25
2023-02-08T08:17:17.353Z,2.29
2023-02-08T08:20:23.066Z,1.45
2023-02-08T08:23:29.126Z,0.93
2023-02-08T08:26:35.287Z,1.01
2023-02-08T08:29:40.546Z,2.40
2023-02-08T08:32:46.089Z,3.33
2023-02-08T08:35:51.630Z,2.67
2023-02-08T08:38:57.004Z,1.92
2023-02-08T08:42:04.170Z,1.43
2023-02-08T08:45:10.318Z,1.17
2023-02-08T08:48:15.777Z,2.22
2023-02-08T08:51:21.184Z,3.52
2023-02-08T08:54:26.376Z,3.34
2023-02-08T08:57:31.896Z,2.51
2023-02-08T09:00:37.200Z,1.87
2023-02-08T09:03:42.628Z,1.47
2023-02-08T09:06:47.881Z,2.03
2023-02-08T09:09:53.275Z,3.39
2023-02-08T09:12:58.734Z,4.04
2023-02-08T09:16:10.044Z,3.31
2023-02-08T09:19:15.915Z,2.57
2023-02-08T09:22:21.319Z,2.10
2023-02-08T09:25:27.233Z,1.77
2023-02-08T09:28:32.837Z,1.58
2023-02-08T09:31:38.258Z,2.50
2023-02-08T09:34:43.638Z,3.88
2023-02-08T09:37:54.470Z,4.33
2023-02-08T09:41:05.029Z,3.56
2023-02-08T09:44:17.335Z,2.82
2023-02-08T09:47:25.591Z,2.34
2023-02-08T09:50:33.557Z,2.04
2023-02-08T09:53:41.375Z,1.83
2023-02-08T09:56:48.072Z,1.68
2023-02-08T09:59:55.694Z,1.77
2023-02-08T10:03:02.767Z,3.03
2023-02-08T10:06:11.000Z,4.28
2023-02-08T10:09:16.937Z,4.27
2023-02-08T10:12:31.045Z,3.56
2023-02-08T10:15:42.920Z,3.08
2023-02-08T10:18:51.741Z,2.80
2023-02-08T10:22:04.966Z,2.63
2023-02-08T10:25:28.657Z,2.51
2023-02-08T10:28:45.586Z,2.41
2023-02-08T10:31:57.960Z,2.32
2023-02-08T10:35:05.705Z,2.27
2023-02-08T10:38:24.970Z,2.22
2023-02-08T10:41:33.571Z,2.21
2023-02-08T10:44:42.991Z,2.20
2023-02-08T10:47:50.643Z,2.20
2023-02-08T10:50:56.200Z,2.23
2023-02-08T10:54:01.661Z,2.28
2023-02-08T10:57:12.866Z,2.32
2023-02-08T11:00:22.314Z,2.37
2023-02-08T11:03:28.654Z,2.42
2023-02-08T11:06:36.994Z,2.49
2023-02-08T11:09:42.456Z,2.53
2023-02-08T11:12:55.388Z,2.63
2023-02-08T11:16:02.272Z,2.75
2023-02-08T11:19:08.163Z,2.79
2023-02-08T11:22:16.474Z,2.84
2023-02-08T11:25:35.849Z,2.81
2023-02-08T11:28:41.297Z,2.86
2023-02-08T11:31:57.908Z,2.90
2023-02-08T11:35:12.336Z,2.92
2023-02-08T11:38:27.448Z,2.94
2023-02-08T11:41:33.477Z,2.97
2023-02-08T11:44:43.264Z,3.05
2023-02-08T11:47:49.640Z,3.10
2023-02-08T11:50:56.573Z,3.14
2023-02-08T11:54:02.755Z,3.16
2023-02-08T11:57:13.601Z,3.23
2023-02-08T12:00:23.526Z,3.25
2023-02-08T12:03:33.696Z,3.24
2023-02-08T12:07:03.842Z,3.24
2023-02-08T12:10:14.735Z,3.22
2023-02-08T12:13:39.652Z,3.27
2023-02-08T12:17:03.723Z,3.31
2023-02-08T12:20:15.862Z,3.36
2023-02-08T12:23:38.179Z,3.40
2023-02-08T12:27:02.741Z,3.41
2023-02-08T12:30:12.296Z,3.41
2023-02-08T12:33:33.655Z,3.42
2023-02-08T12:36:45.771Z,3.43
2023-02-08T12:40:14.690Z,3.42
2023-02-08T12:43:25.286Z,3.38
2023-02-08T12:46:48.152Z,3.32
2023-02-08T12:49:58.900Z,3.23
2023-02-08T12:53:09.815Z,3.21
2023-02-08T12:56:17.098Z,3.27
2023-02-08T12:59:29.616Z,3.37
2023-02-08T13:02:43.339Z,3.36
2023-02-08T13:06:01.664Z,3.34
2023-02-08T13:09:15.151Z,3.26
2023-02-08T13:12:23.027Z,3.18
2023-02-08T13:15:31.477Z,3.09
2023-02-08T13:18:38.675Z,2.95
2023-02-08T13:21:44.381Z,2.81
2023-02-08T13:25:01.335Z,2.74
2023-02-08T13:28:19.445Z,2.71
2023-02-08T13:31:27.858Z,2.75
2023-02-08T13:34:36.749Z,2.83
2023-02-08T13:37:42.833Z,2.93
2023-02-08T13:40:48.332Z,3.04
2023-02-08T13:43:56.254Z,3.13
2023-02-08T13:47:01.734Z,3.21
2023-02-08T13:50:09.764Z,3.30
2023-02-08T13:53:15.892Z,3.45
2023-02-08T13:56:38.124Z,3.55
2023-02-08T13:59:45.441Z,3.66
2023-02-08T14:03:00.085Z,3.72
2023-02-08T14:06:10.338Z,3.78
2023-02-08T14:09:21.781Z,3.80
2023-02-08T14:12:32.136Z,3.75
2023-02-08T14:15:39.996Z,3.73
2023-02-08T14:18:52.328Z,3.80
2023-02-08T14:22:03.720Z,3.85
2023-02-08T14:25:18.145Z,3.84
2023-02-08T14:28:33.061Z,3.74
2023-02-08T14:31:42.181Z,3.63
2023-02-08T14:34:47.777Z,3.51
2023-02-08T14:38:13.560Z,3.37
2023-02-08T14:41:36.315Z,3.20
2023-02-08T14:44:49.015Z,3.02
2023-02-08T14:47:58.807Z,2.89
2023-02-08T14:51:16.694Z,2.77
2023-02-08T14:54:24.381Z,2.64
2023-02-08T14:57:31.498Z,2.54
2023-02-08T15:00:38.296Z,2.43
2023-02-08T15:03:44.530Z,2.32
2023-02-08T15:07:01.638Z,2.20
2023-02-08T15:10:12.076Z,2.08
2023-02-08T15:13:21.335Z,1.93
2023-02-08T15:16:29.916Z,1.74
2023-02-08T15:19:38.673Z,1.52
2023-02-08T15:22:44.008Z,1.32
2023-02-08T15:25:56.722Z,1.13
2023-02-08T15:29:02.049Z,0.95
2023-02-08T15:32:13.313Z,0.80
2023-02-08T15:35:20.132Z,0.66
2023-02-08T15:38:25.599Z,0.52
2023-02-08T15:41:31.906Z,0.84
2023-02-08T15:44:37.366Z,2.80
2023-02-08T15:47:42.771Z,4.47
2023-02-08T15:50:48.466Z,5.65
2023-02-08T15:53:55.221Z,6.56
2023-02-08T15:57:02.471Z,7.19
2023-02-08T16:00:14.678Z,6.56
2023-02-08T16:03:23.646Z,4.95
2023-02-08T16:06:30.257Z,3.83
2023-02-08T16:09:35.724Z,3.06
2023-02-08T16:12:41.186Z,2.46
2023-02-08T16:15:47.455Z,1.99
2023-02-08T16:18:59.584Z,1.57
2023-02-08T16:22:21.361Z,1.22
2023-02-08T16:25:34.645Z,0.86
2023-02-08T16:28:40.389Z,0.50
2023-02-08T16:31:47.177Z,0.19
2023-02-08T16:34:53.011Z,-0.11
2023-02-08T16:38:00.782Z,-0.39
2023-02-08T16:41:13.555Z,-0.63
2023-02-08T16:44:24.415Z,-0.86
2023-02-08T16:47:35.985Z,-1.07
2023-02-08T16:50:41.593Z,-1.26
2023-02-08T16:53:47.747Z,-1.25
2023-02-08T16:56:59.861Z,0.22
2023-02-08T17:00:13.972Z,2.08
2023-02-08T17:03:20.711Z,3.08
2023-02-08T17:06:29.403Z,3.73
2023-02-08T17:09:34.616Z,4.30
2023-02-08T17:12:40.326Z,4.81
2023-02-08T17:15:46.291Z,5.26
2023-02-08T17:18:52.064Z,5.60
2023-02-08T17:21:57.378Z,4.82
2023-02-08T17:25:02.841Z,3.53
2023-02-08T17:28:09.100Z,2.61
2023-02-08T17:31:14.861Z,1.99
2023-02-08T17:34:20.229Z,1.53
2023-02-08T17:37:25.636Z,1.21
2023-02-08T17:40:33.250Z,0.94
2023-02-08T17:43:38.944Z,1.22
2023-02-08T17:46:44.258Z,2.77
2023-02-08T17:49:49.822Z,4.08
2023-02-08T17:52:55.661Z,4.87
2023-02-08T17:56:01.098Z,5.27
2023-02-08T17:59:06.528Z,5.83
2023-02-08T18:02:12.112Z,5.26
2023-02-08T18:05:17.849Z,3.87
2023-02-08T18:08:23.231Z,2.82
2023-02-08T18:11:28.752Z,2.03
2023-02-08T18:14:35.722Z,1.40
2023-02-08T18:17:42.319Z,0.84
2023-02-08T18:20:47.920Z,0.39
2023-02-08T18:23:53.327Z,-0.01
2023-02-08T18:26:59.954Z,-0.37
2023-02-08T18:30:05.607Z,-0.71
2023-02-08T18:33:12.487Z,-1.00
2023-02-08T18:36:18.244Z,-1.28
2023-02-08T18:39:24.281Z,-1.51
2023-02-08T18:42:29.730Z,-1.37
2023-02-08T18:45:35.400Z,0.15
2023-02-08T18:48:41.148Z,1.66
2023-02-08T18:51:47.487Z,2.84
2023-02-08T18:54:53.317Z,3.59
2023-02-08T18:57:58.810Z,4.19
2023-02-08T19:01:08.092Z,4.70
2023-02-08T19:04:13.448Z,4.80
2023-02-08T19:07:18.786Z,3.49
2023-02-08T19:10:24.216Z,2.15
2023-02-08T19:13:29.851Z,1.27
2023-02-08T19:16:36.159Z,0.64
2023-02-08T19:19:41.676Z,0.11
2023-02-08T19:22:46.863Z,-0.34
2023-02-08T19:25:52.177Z,-0.73
2023-02-08T19:28:59.235Z,-1.06
2023-02-08T19:32:05.028Z,-1.21
2023-02-08T19:35:10.628Z,0.03
2023-02-08T19:38:16.026Z,1.42
2023-02-08T19:41:22.391Z,2.55
2023-02-08T19:44:30.498Z,3.43
2023-02-08T19:47:50.738Z,4.06
2023-02-08T19:50:57.730Z,4.58
2023-02-08T19:54:06.619Z,4.93
2023-02-08T19:57:14.722Z,4.97
2023-02-08T20:00:23.888Z,3.57
2023-02-08T20:03:29.694Z,2.21
2023-02-08T20:06:36.514Z,1.24
2023-02-08T20:09:41.764Z,0.51
2023-02-08T20:12:47.010Z,-0.07
2023-02-08T20:15:52.451Z,0.04
2023-02-08T20:18:58.358Z,1.39
2023-02-08T20:22:04.540Z,2.48
2023-02-08T20:25:09.972Z,3.23
2023-02-08T20:28:15.510Z,3.88
2023-02-08T20:31:22.491Z,4.20
2023-02-08T20:34:28.154Z,4.63
2023-02-08T20:37:33.605Z,3.90
2023-02-08T20:40:39.237Z,2.38
2023-02-08T20:43:45.884Z,1.27
2023-02-08T20:46:52.045Z,0.46
2023-02-08T20:49:58.432Z,-0.18
2023-02-08T20:53:03.937Z,-0.67
2023-02-08T20:56:10.755Z,-0.51
2023-02-08T20:59:17.040Z,1.02
2023-02-08T21:02:23.296Z,2.22
2023-02-08T21:05:30.623Z,2.97
2023-02-08T21:08:36.119Z,3.48
2023-02-08T21:11:42.024Z,3.89
2023-02-08T21:14:47.520Z,4.22
2023-02-08T21:17:52.919Z,4.41
2023-02-08T21:20:58.210Z,3.31
2023-02-08T21:24:03.588Z,1.89
2023-02-08T21:27:08.708Z,0.88
2023-02-08T21:30:14.504Z,0.13
2023-02-08T21:33:19.936Z,-0.48
2023-02-08T21:36:25.462Z,-0.98
2023-02-08T21:39:30.690Z,-1.18
2023-02-08T21:42:36.044Z,-0.04
2023-02-08T21:45:41.330Z,1.26
2023-02-08T21:49:00.790Z,2.13
2023-02-08T21:52:24.052Z,2.79
2023-02-08T21:55:29.327Z,3.30
2023-02-08T21:58:34.608Z,3.68
2023-02-08T22:01:40.066Z,4.00
2023-02-08T22:04:46.775Z,3.96
2023-02-08T22:07:54.163Z,2.60
2023-02-08T22:11:04.540Z,1.28
2023-02-08T22:14:10.506Z,0.32
2023-02-08T22:17:16.040Z,-0.40
2023-02-08T22:20:21.530Z,-0.97
2023-02-08T22:23:26.914Z,-1.43
2023-02-08T22:26:32.221Z,-1.65
2023-02-08T22:29:37.719Z,-0.57
2023-02-08T22:32:43.820Z,0.75
2023-02-08T22:35:49.190Z,1.71
2023-02-08T22:38:54.647Z,2.38
2023-02-08T22:41:59.945Z,2.81
2023-02-08T22:45:05.530Z,3.11
2023-02-08T22:48:11.132Z,3.49
2023-02-08T22:51:18.103Z,3.85
2023-02-08T22:54:23.923Z,3.29
2023-02-08T22:57:29.267Z,1.79
2023-02-08T23:00:34.580Z,0.61
2023-02-08T23:03:40.095Z,-0.23
2023-02-08T23:06:45.439Z,-0.87
2023-02-08T23:09:50.715Z,-1.40
2023-02-08T23:12:56.213Z,-1.75
2023-02-08T23:16:01.793Z,-0.88
2023-02-08T23:19:07.093Z,0.54
2023-02-08T23:22:12.348Z,1.56
2023-02-08T23:25:18.114Z,2.27
2023-02-08T23:28:23.638Z,2.80
2023-02-08T23:31:29.111Z,3.26
2023-02-08T23:34:36.070Z,3.59
2023-02-08T23:37:41.400Z,3.69
2023-02-08T23:40:46.975Z,2.39
2023-02-08T23:43:53.498Z,1.01
2023-02-08T23:46:58.932Z,0.00
2023-02-08T23:50:04.338Z,-0.74
2023-02-08T23:53:09.585Z,-1.35
2023-02-08T23:56:16.734Z,-1.85
2023-02-08T23:59:22.188Z,-2.27
